Time;durP1;ratioP1;P1;durP2;ratioP2;P2;SDS_P1;SDS_P2;PMS_P1;PMS_P2;Temp;Humidity;BMP_temperature;BMP_pressure;BME280_temperature;BME280_humidity;BME280_pressure;Samples;Min_cycle;Max_cycle;Signal;HPM_P1;HPM_P2
2023/12/14 00:02:02;;;;;;;6.40;4.05;;;7.40;99.90;;;;;;5044430;28;20040;-65
2023/12/14 00:04:28;;;;;;;6.40;4.00;;;7.40;99.90;;;;;;5045800;28;20040;-65
2023/12/14 00:06:54;;;;;;;11.43;4.22;;;7.40;99.90;;;;;;5037555;28;20057;-66
2023/12/14 00:09:19;;;;;;;6.25;3.85;;;7.40;99.90;;;;;;5045214;28;20666;-65
2023/12/14 00:11:45;;;;;;;7.45;4.57;;;7.40;99.90;;;;;;5039988;28;20102;-65
2023/12/14 00:14:11;;;;;;;7.35;3.92;;;7.40;99.90;;;;;;5043994;28;20079;-64
2023/12/14 00:16:37;;;;;;;7.22;3.97;;;7.30;99.90;;;;;;5040962;28;20163;-65
2023/12/14 00:19:03;;;;;;;9.70;4.55;;;7.30;99.90;;;;;;5044204;28;20116;-65
2023/12/14 00:21:29;;;;;;;8.68;4.30;;;7.40;99.90;;;;;;5041824;28;20047;-65
2023/12/14 00:23:55;;;;;;;7.80;4.57;;;7.30;99.90;;;;;;5040233;28;20021;-65
2023/12/14 00:26:20;;;;;;;7.70;4.40;;;7.30;99.90;;;;;;5036185;28;20071;-66
2023/12/14 00:28:46;;;;;;;8.73;4.60;;;7.30;99.90;;;;;;5044726;28;20071;-66
2023/12/14 00:31:12;;;;;;;8.93;4.40;;;7.30;99.90;;;;;;5033658;28;20110;-65
2023/12/14 00:33:38;;;;;;;8.98;4.50;;;7.30;99.90;;;;;;5044921;28;20621;-65
2023/12/14 00:36:04;;;;;;;8.45;4.47;;;7.30;99.90;;;;;;5042776;28;20189;-66
2023/12/14 00:38:30;;;;;;;6.50;3.83;;;7.30;99.90;;;;;;5043254;28;20029;-66
2023/12/14 00:40:56;;;;;;;8.05;4.38;;;7.40;99.90;;;;;;5041211;28;20081;-66
2023/12/14 00:43:22;;;;;;;9.90;4.20;;;7.40;99.90;;;;;;5030214;28;20040;-65
2023/12/14 00:45:47;;;;;;;6.57;3.78;;;7.40;99.90;;;;;;5045075;28;20530;-65
2023/12/14 00:48:13;;;;;;;8.70;5.28;;;7.40;99.90;;;;;;5044898;28;20024;-65
2023/12/14 00:50:39;;;;;;;8.82;4.18;;;7.30;99.90;;;;;;5043718;28;20029;-66
2023/12/14 00:53:05;;;;;;;9.43;4.88;;;7.30;99.90;;;;;;5044684;28;20759;-66
2023/12/14 00:55:31;;;;;;;7.68;5.20;;;7.30;99.90;;;;;;5038766;28;20033;-65
2023/12/14 00:57:56;;;;;;;8.80;4.75;;;7.30;99.90;;;;;;5040980;28;20025;-66
2023/12/14 01:00:22;;;;;;;8.13;4.88;;;7.30;99.90;;;;;;5044145;28;20103;-65
2023/12/14 01:02:48;;;;;;;10.20;5.20;;;7.30;99.90;;;;;;5033333;28;20257;-65
2023/12/14 01:05:14;;;;;;;8.63;4.53;;;7.30;99.90;;;;;;5042842;28;20036;-66
2023/12/14 01:07:40;;;;;;;8.57;5.18;;;7.20;99.90;;;;;;5038759;28;20064;-65
2023/12/14 01:10:06;;;;;;;9.55;5.63;;;7.20;99.90;;;;;;5042227;28;20029;-65
2023/12/14 01:12:32;;;;;;;9.52;5.18;;;7.20;99.90;;;;;;5042620;28;20101;-65
2023/12/14 01:14:58;;;;;;;8.38;5.07;;;7.20;99.90;;;;;;5036549;28;20041;-65
2023/12/14 01:17:24;;;;;;;9.68;5.32;;;7.10;99.90;;;;;;5040376;28;20408;-65
2023/12/14 01:19:50;;;;;;;8.68;4.75;;;7.10;99.90;;;;;;5041770;28;20057;-65
2023/12/14 01:22:16;;;;;;;9.55;5.10;;;7.10;99.90;;;;;;5043708;28;20087;-65
2023/12/14 01:24:41;;;;;;;10.40;5.05;;;7.10;99.90;;;;;;5038943;28;20041;-65
2023/12/14 01:27:09;;;;;;;11.82;5.35;;;7.10;99.90;;;;;;5034565;28;20029;-65
2023/12/14 01:29:35;;;;;;;9.70;5.53;;;7.10;99.90;;;;;;5042911;28;20028;-65
2023/12/14 01:32:01;;;;;;;9.23;4.65;;;7.10;99.90;;;;;;5035467;28;20090;-65
2023/12/14 01:34:27;;;;;;;9.00;4.60;;;7.00;99.90;;;;;;5044175;28;20039;-65
2023/12/14 01:36:53;;;;;;;8.05;4.32;;;7.10;99.90;;;;;;5044242;28;20048;-65
2023/12/14 01:39:19;;;;;;;11.23;5.22;;;7.00;99.90;;;;;;5036307;28;20035;-65
2023/12/14 01:41:44;;;;;;;9.20;5.22;;;7.00;99.90;;;;;;5043262;28;20086;-65
2023/12/14 01:44:10;;;;;;;9.82;5.32;;;7.00;99.90;;;;;;5042891;28;20116;-65
2023/12/14 01:46:36;;;;;;;10.20;5.22;;;7.00;99.90;;;;;;5044457;28;20575;-66
2023/12/14 01:49:02;;;;;;;12.63;5.05;;;7.00;99.90;;;;;;5033273;28;20538;-65
2023/12/14 01:51:28;;;;;;;10.40;5.60;;;7.00;99.90;;;;;;5036702;28;20044;-65
2023/12/14 01:53:53;;;;;;;11.00;5.63;;;7.00;99.90;;;;;;5044085;28;20041;-65
2023/12/14 01:56:19;;;;;;;10.70;5.20;;;6.90;99.90;;;;;;5033929;28;20029;-65
2023/12/14 01:58:45;;;;;;;10.13;5.47;;;6.90;99.90;;;;;;5047828;28;20501;-65
2023/12/14 02:01:28;;;;;;;9.68;5.60;;;6.90;99.90;;;;;;5041259;28;20051;-65
2023/12/14 02:03:55;;;;;;;11.75;5.55;;;6.90;99.90;;;;;;5039934;28;20126;-65
2023/12/14 02:06:21;;;;;;;9.57;5.30;;;6.90;99.90;;;;;;5044592;28;20036;-65
2023/12/14 02:08:47;;;;;;;9.02;4.82;;;6.90;99.90;;;;;;5045048;28;20021;-65
2023/12/14 02:11:13;;;;;;;7.78;4.70;;;6.90;99.90;;;;;;5045995;28;20043;-65
2023/12/14 02:13:39;;;;;;;7.32;4.25;;;6.80;99.90;;;;;;5041090;28;20021;-65
2023/12/14 02:16:05;;;;;;;8.77;4.78;;;6.80;99.90;;;;;;5043495;28;20413;-65
2023/12/14 02:18:30;;;;;;;8.82;4.20;;;6.80;99.90;;;;;;5045889;28;20040;-65
2023/12/14 02:20:56;;;;;;;7.78;4.05;;;6.80;99.90;;;;;;5046860;28;20082;-65
2023/12/14 02:23:22;;;;;;;7.70;3.97;;;6.70;99.90;;;;;;5046275;28;20032;-65
2023/12/14 02:25:48;;;;;;;7.78;3.95;;;6.70;99.90;;;;;;5042985;28;20154;-65
2023/12/14 02:28:14;;;;;;;7.80;4.07;;;6.80;99.90;;;;;;5046012;28;20029;-65
2023/12/14 02:30:40;;;;;;;6.25;3.53;;;6.70;99.90;;;;;;5043055;28;20069;-65
2023/12/14 02:33:05;;;;;;;7.57;3.72;;;6.70;99.90;;;;;;5040033;28;20098;-65
2023/12/14 02:35:31;;;;;;;6.28;4.25;;;6.70;99.90;;;;;;5035459;28;20044;-65
2023/12/14 02:37:57;;;;;;;6.43;4.03;;;6.70;99.90;;;;;;5047074;28;20045;-65
2023/12/14 02:40:23;;;;;;;7.25;3.50;;;6.80;99.90;;;;;;5046998;28;20434;-65
2023/12/14 02:42:49;;;;;;;6.20;3.75;;;6.70;99.90;;;;;;5045260;28;20037;-65
2023/12/14 02:45:14;;;;;;;9.35;4.63;;;6.70;99.90;;;;;;5044052;28;20044;-65
2023/12/14 02:47:40;;;;;;;5.50;3.67;;;6.70;99.90;;;;;;5046548;28;20033;-65
2023/12/14 02:50:06;;;;;;;7.28;4.15;;;6.70;99.90;;;;;;5036994;28;20052;-65
2023/12/14 02:52:32;;;;;;;7.28;3.72;;;6.70;99.90;;;;;;5039690;28;20045;-65
2023/12/14 02:54:58;;;;;;;5.82;3.67;;;6.70;99.90;;;;;;5041657;28;20037;-65
2023/12/14 02:57:24;;;;;;;7.05;4.05;;;6.70;99.90;;;;;;5047051;28;20045;-65
2023/12/14 02:59:50;;;;;;;6.32;4.10;;;6.60;99.90;;;;;;5042103;28;20115;-65
2023/12/14 03:02:16;;;;;;;5.63;3.92;;;6.60;99.90;;;;;;5045415;28;20087;-65
2023/12/14 03:04:42;;;;;;;6.97;3.97;;;6.60;99.90;;;;;;5040931;28;20056;-65
2023/12/14 03:07:08;;;;;;;7.45;3.97;;;6.60;99.90;;;;;;5046449;28;20092;-65
2023/12/14 03:09:34;;;;;;;6.93;4.25;;;6.60;99.90;;;;;;5042701;28;20144;-65
2023/12/14 03:12:02;;;;;;;8.55;4.32;;;6.50;99.90;;;;;;5046196;28;20552;-65
2023/12/14 03:14:33;;;;;;;9.15;4.78;;;6.50;99.90;;;;;;5046232;28;20051;-65
2023/12/14 03:16:59;;;;;;;7.22;3.97;;;6.50;99.90;;;;;;5042403;28;20052;-66
2023/12/14 03:19:25;;;;;;;6.82;4.38;;;6.50;99.90;;;;;;5046489;28;20025;-65
2023/12/14 03:21:51;;;;;;;9.55;5.25;;;6.50;99.90;;;;;;5046177;28;20047;-65
2023/12/14 03:24:16;;;;;;;6.60;3.97;;;6.60;99.90;;;;;;5046122;28;20500;-65
2023/12/14 03:26:42;;;;;;;10.55;4.95;;;6.60;99.90;;;;;;5043733;28;20032;-65
2023/12/14 03:29:08;;;;;;;7.65;4.28;;;6.60;99.90;;;;;;5045620;28;20040;-65
2023/12/14 03:31:35;;;;;;;8.13;4.90;;;6.60;99.90;;;;;;5045869;28;20037;-65
2023/12/14 03:34:01;;;;;;;8.30;4.68;;;6.60;99.90;;;;;;5036309;28;20103;-65
2023/12/14 03:36:27;;;;;;;9.13;4.60;;;6.60;99.90;;;;;;5045932;28;20582;-65
2023/12/14 03:38:53;;;;;;;7.63;4.38;;;6.60;99.90;;;;;;5045795;28;20136;-65
2023/12/14 03:41:19;;;;;;;7.18;4.22;;;6.50;99.90;;;;;;5030575;28;20501;-65
2023/12/14 03:43:45;;;;;;;9.77;4.78;;;6.50;99.90;;;;;;5040339;28;20049;-65
2023/12/14 03:46:11;;;;;;;12.27;5.35;;;6.50;99.90;;;;;;5038022;28;20028;-65
2023/12/14 03:48:37;;;;;;;9.57;4.70;;;6.50;99.90;;;;;;5043000;28;21012;-65
2023/12/14 03:51:04;;;;;;;9.73;4.53;;;6.50;99.90;;;;;;5043430;28;20032;-65
2023/12/14 03:53:30;;;;;;;9.80;5.00;;;6.40;99.90;;;;;;5038707;28;20052;-65
2023/12/14 03:55:58;;;;;;;6.93;4.70;;;6.40;99.90;;;;;;5045422;28;20043;-65
2023/12/14 03:58:24;;;;;;;9.43;5.13;;;6.50;99.90;;;;;;5039703;28;20037;-65
2023/12/14 04:00:50;;;;;;;9.52;4.78;;;6.50;99.90;;;;;;5041046;28;20115;-65
2023/12/14 04:03:15;;;;;;;9.60;5.15;;;6.40;99.90;;;;;;5043298;28;20511;-65
2023/12/14 04:05:42;;;;;;;7.13;4.28;;;6.40;99.90;;;;;;5042108;28;20123;-65
2023/12/14 04:08:08;;;;;;;10.43;5.43;;;6.40;99.90;;;;;;5039776;28;20124;-65
2023/12/14 04:10:34;;;;;;;8.55;5.22;;;6.40;99.90;;;;;;5041817;28;20104;-65
2023/12/14 04:13:00;;;;;;;10.43;5.00;;;6.30;99.90;;;;;;5037053;28;20079;-65
2023/12/14 04:15:25;;;;;;;9.50;5.40;;;6.40;99.90;;;;;;5038730;28;20029;-65
2023/12/14 04:17:51;;;;;;;13.15;5.88;;;6.40;99.90;;;;;;5041066;28;20843;-65
2023/12/14 04:20:17;;;;;;;9.52;5.07;;;6.40;99.90;;;;;;5043255;28;20131;-65
2023/12/14 04:22:44;;;;;;;10.80;5.30;;;6.40;99.90;;;;;;5036157;28;20122;-65
2023/12/14 04:25:10;;;;;;;11.43;5.28;;;6.50;99.90;;;;;;5044969;28;20415;-65
2023/12/14 04:27:36;;;;;;;11.68;5.30;;;6.50;99.90;;;;;;5042867;28;20052;-65
2023/12/14 04:30:04;;;;;;;8.15;5.18;;;6.50;99.90;;;;;;5044716;28;20035;-65
2023/12/14 04:32:30;;;;;;;11.98;4.78;;;6.50;99.90;;;;;;5043059;28;20052;-65
2023/12/14 04:34:56;;;;;;;9.05;5.18;;;6.50;99.90;;;;;;5044872;28;20038;-65
2023/12/14 04:37:22;;;;;;;12.05;5.35;;;6.50;99.90;;;;;;5044834;28;20572;-65
2023/12/14 04:39:47;;;;;;;13.70;6.00;;;6.50;99.90;;;;;;5037481;28;20036;-65
2023/12/14 04:42:13;;;;;;;9.93;5.13;;;6.50;99.90;;;;;;5031272;28;20042;-65
2023/12/14 04:44:39;;;;;;;10.77;5.55;;;6.50;99.90;;;;;;5038883;28;20024;-65
2023/12/14 04:47:05;;;;;;;14.75;6.53;;;6.50;99.90;;;;;;5041301;28;20076;-65
2023/12/14 04:49:31;;;;;;;12.75;6.07;;;6.50;99.90;;;;;;5038085;28;20028;-65
2023/12/14 04:51:56;;;;;;;11.40;6.28;;;6.50;99.90;;;;;;5044625;28;20029;-65
2023/12/14 04:54:22;;;;;;;12.25;6.07;;;6.40;99.90;;;;;;5044731;28;20028;-65
2023/12/14 04:56:48;;;;;;;12.45;6.22;;;6.40;99.90;;;;;;5045008;28;20039;-65
2023/12/14 04:59:14;;;;;;;11.20;5.72;;;6.40;99.90;;;;;;5044345;28;20708;-65
2023/12/14 05:01:40;;;;;;;10.15;5.93;;;6.40;99.90;;;;;;5044732;28;20029;-65
2023/12/14 05:04:05;;;;;;;8.48;5.32;;;6.40;99.90;;;;;;5033953;28;20464;-65
2023/12/14 05:06:33;;;;;;;9.68;5.53;;;6.50;99.90;;;;;;5037587;28;20485;-65
2023/12/14 05:09:01;;;;;;;11.82;6.20;;;6.40;99.90;;;;;;5044324;28;20079;-65
2023/12/14 05:11:27;;;;;;;8.70;5.00;;;6.40;99.90;;;;;;5044426;28;20033;-65
2023/12/14 05:13:52;;;;;;;8.93;5.60;;;6.40;99.90;;;;;;5043529;28;20036;-65
2023/12/14 05:16:18;;;;;;;10.98;4.60;;;6.30;99.90;;;;;;5043810;28;20025;-65
2023/12/14 05:18:44;;;;;;;10.23;5.28;;;6.30;99.90;;;;;;5041781;28;20033;-65
2023/12/14 05:21:17;;;;;;;8.05;5.10;;;6.30;99.90;;;;;;5043801;28;20041;-65
2023/12/14 05:23:43;;;;;;;9.68;5.03;;;6.30;99.90;;;;;;5042311;28;20820;-65
2023/12/14 05:26:09;;;;;;;9.75;5.05;;;6.40;99.90;;;;;;5039493;28;20174;-65
2023/12/14 05:28:35;;;;;;;7.50;4.60;;;6.30;99.90;;;;;;5045148;28;20119;-65
2023/12/14 05:31:01;;;;;;;8.73;5.03;;;6.30;99.90;;;;;;5048264;28;20025;-65
2023/12/14 05:33:27;;;;;;;8.82;5.43;;;6.30;99.90;;;;;;5043575;28;20531;-65
2023/12/14 05:35:52;;;;;;;9.82;4.93;;;6.30;99.90;;;;;;5048323;28;20029;-64
2023/12/14 05:38:18;;;;;;;10.23;5.40;;;6.30;99.90;;;;;;5048404;28;20060;-65
2023/12/14 05:40:44;;;;;;;10.20;5.53;;;6.40;99.90;;;;;;5047984;28;20400;-65
2023/12/14 05:43:10;;;;;;;11.20;5.93;;;6.40;99.90;;;;;;5048167;28;20117;-65
2023/12/14 05:45:36;;;;;;;11.93;5.57;;;6.40;99.90;;;;;;5048280;28;20029;-65
2023/12/14 05:48:05;;;;;;;10.43;5.65;;;6.40;99.90;;;;;;5048141;28;20044;-65
2023/12/14 05:50:31;;;;;;;12.90;5.65;;;6.30;99.90;;;;;;5048042;28;20029;-65
2023/12/14 05:52:57;;;;;;;9.35;5.05;;;6.30;99.90;;;;;;5047891;28;20037;-65
2023/12/14 05:55:23;;;;;;;8.63;5.55;;;6.30;99.90;;;;;;5040996;28;20074;-65
2023/12/14 05:57:49;;;;;;;10.40;6.40;;;6.30;99.90;;;;;;5046651;28;20057;-65
2023/12/14 06:00:15;;;;;;;12.25;6.00;;;6.30;99.90;;;;;;5047029;28;20048;-65
2023/12/14 06:02:41;;;;;;;11.45;5.70;;;6.30;99.90;;;;;;5036199;28;20042;-65
2023/12/14 06:05:08;;;;;;;13.55;5.63;;;6.30;99.90;;;;;;5045804;28;20485;-65
2023/12/14 06:07:34;;;;;;;9.48;5.57;;;6.30;99.90;;;;;;5043036;28;20029;-65
2023/12/14 06:10:00;;;;;;;11.57;6.03;;;6.30;99.90;;;;;;5044452;28;20451;-65
2023/12/14 06:12:27;;;;;;;13.13;6.30;;;6.40;99.90;;;;;;5041761;28;20809;-65
2023/12/14 06:14:53;;;;;;;11.75;6.20;;;6.40;99.90;;;;;;5044344;28;20443;-65
2023/12/14 06:17:19;;;;;;;11.25;5.68;;;6.30;99.90;;;;;;5047360;28;20029;-64
2023/12/14 06:19:44;;;;;;;9.65;5.50;;;6.30;99.90;;;;;;5047745;28;20056;-65
2023/12/14 06:22:10;;;;;;;11.68;5.72;;;6.30;99.90;;;;;;5046104;28;20556;-65
2023/12/14 06:24:36;;;;;;;10.70;6.25;;;6.30;99.90;;;;;;5047487;28;20037;-65
2023/12/14 06:27:03;;;;;;;9.52;5.43;;;6.30;99.90;;;;;;5047659;28;20060;-65
2023/12/14 06:29:29;;;;;;;9.75;5.05;;;6.40;99.90;;;;;;5045782;28;20155;-65
2023/12/14 06:31:55;;;;;;;14.50;6.32;;;6.30;99.90;;;;;;5047213;28;20067;-65
2023/12/14 06:34:21;;;;;;;9.93;5.43;;;6.30;99.90;;;;;;5046334;28;20110;-65
2023/12/14 06:36:46;;;;;;;10.65;5.80;;;6.30;99.90;;;;;;5047299;28;20074;-65
2023/12/14 06:39:13;;;;;;;7.95;4.57;;;6.30;99.90;;;;;;5038939;28;20041;-65
2023/12/14 06:41:39;;;;;;;9.13;4.90;;;6.40;99.90;;;;;;5041317;28;20029;-65
2023/12/14 06:44:05;;;;;;;11.02;5.22;;;6.40;99.90;;;;;;5029101;28;20031;-65
2023/12/14 06:46:31;;;;;;;7.70;5.10;;;6.40;99.90;;;;;;5046761;28;20056;-65
2023/12/14 06:48:57;;;;;;;9.55;5.47;;;6.40;99.90;;;;;;5033762;28;20131;-65
2023/12/14 06:51:23;;;;;;;10.75;5.25;;;6.40;99.90;;;;;;5046658;28;20021;-65
2023/12/14 06:53:48;;;;;;;8.77;5.38;;;6.40;99.90;;;;;;5037829;28;20033;-65
2023/12/14 06:56:15;;;;;;;11.27;5.85;;;6.40;99.90;;;;;;5033019;28;20120;-65
2023/12/14 06:58:42;;;;;;;11.32;5.65;;;6.40;99.90;;;;;;5046740;28;20045;-65
2023/12/14 07:01:16;;;;;;;11.07;5.38;;;6.40;99.90;;;;;;5034246;28;20032;-65
2023/12/14 07:03:44;;;;;;;14.75;6.63;;;6.40;99.90;;;;;;5043191;28;20036;-65
2023/12/14 07:06:18;;;;;;;9.25;5.18;;;6.40;99.90;;;;;;5034424;28;20029;-65
2023/12/14 07:08:44;;;;;;;10.85;5.82;;;6.40;99.90;;;;;;5046435;28;20119;-65
2023/12/14 07:11:11;;;;;;;12.48;5.85;;;6.40;99.90;;;;;;5046250;28;20194;-65
2023/12/14 07:13:37;;;;;;;15.30;7.05;;;6.40;99.90;;;;;;5040784;28;20040;-65
2023/12/14 07:16:08;;;;;;;13.80;6.90;;;6.40;99.90;;;;;;5042899;28;20086;-65
2023/12/14 07:18:35;;;;;;;11.23;6.57;;;6.40;99.90;;;;;;5039704;28;20481;-65
2023/12/14 07:21:02;;;;;;;14.63;7.15;;;6.40;99.90;;;;;;5042118;28;20033;-65
2023/12/14 07:23:28;;;;;;;18.35;10.88;;;6.40;99.90;;;;;;5043892;28;20078;-65
2023/12/14 07:25:54;;;;;;;21.25;13.77;;;6.40;99.90;;;;;;5037778;28;20037;-65
2023/12/14 07:28:20;;;;;;;17.23;11.23;;;6.40;99.90;;;;;;5041919;28;20040;-65
2023/12/14 07:30:46;;;;;;;22.80;11.38;;;6.40;99.90;;;;;;5044654;28;20025;-65
2023/12/14 07:33:12;;;;;;;23.83;12.18;;;6.50;99.90;;;;;;5041099;28;20449;-65
2023/12/14 07:35:38;;;;;;;38.35;20.77;;;6.50;99.90;;;;;;5043464;28;20368;-65
2023/12/14 07:38:04;;;;;;;19.58;9.48;;;6.50;99.90;;;;;;5042066;28;20079;-65
2023/12/14 07:40:30;;;;;;;18.23;8.15;;;6.50;99.90;;;;;;5038593;28;20850;-65
2023/12/14 07:42:56;;;;;;;17.92;9.90;;;6.40;99.90;;;;;;5044276;28;20033;-64
2023/12/14 07:45:22;;;;;;;13.88;8.00;;;6.40;99.90;;;;;;5033888;28;20101;-65
2023/12/14 07:47:48;;;;;;;13.00;6.50;;;6.50;99.90;;;;;;5045339;28;20036;-65
2023/12/14 07:50:14;;;;;;;14.32;6.00;;;6.40;99.90;;;;;;5042927;28;20145;-65
2023/12/14 07:52:40;;;;;;;9.90;5.45;;;6.40;99.90;;;;;;5044350;28;20124;-65
2023/12/14 07:55:07;;;;;;;12.90;5.38;;;6.40;99.90;;;;;;5043742;28;20029;-65
2023/12/14 07:57:33;;;;;;;9.90;5.10;;;6.40;99.90;;;;;;5044982;28;20120;-65
2023/12/14 07:59:59;;;;;;;11.00;5.45;;;6.40;99.90;;;;;;5037567;28;20666;-64
2023/12/14 08:02:25;;;;;;;11.27;5.68;;;6.40;99.90;;;;;;5045262;28;20853;-65
2023/12/14 08:04:51;;;;;;;12.05;6.15;;;6.40;99.90;;;;;;5033916;28;20124;-65
2023/12/14 08:07:17;;;;;;;10.85;5.75;;;6.40;99.90;;;;;;5044537;28;20025;-65
2023/12/14 08:09:43;;;;;;;9.80;5.25;;;6.40;99.90;;;;;;5041351;28;20091;-65
2023/12/14 08:12:09;;;;;;;8.30;5.82;;;6.40;99.90;;;;;;5045021;28;20094;-65
2023/12/14 08:14:35;;;;;;;9.57;5.55;;;6.50;99.90;;;;;;5045554;28;20033;-65
2023/12/14 08:17:01;;;;;;;11.45;5.90;;;6.50;99.90;;;;;;5045104;28;20036;-65
2023/12/14 08:19:27;;;;;;;9.00;5.60;;;6.50;99.90;;;;;;5022322;28;20032;-65
2023/12/14 08:21:53;;;;;;;10.10;5.13;;;6.50;99.90;;;;;;5038040;28;20036;-65
2023/12/14 08:24:19;;;;;;;11.57;5.50;;;6.50;99.90;;;;;;5036560;28;20025;-65
2023/12/14 08:26:45;;;;;;;10.15;5.43;;;6.50;99.90;;;;;;5038035;28;20766;-64
2023/12/14 08:29:11;;;;;;;8.65;5.38;;;6.50;99.90;;;;;;5041810;28;20524;-65
2023/12/14 08:31:36;;;;;;;8.82;5.10;;;6.50;99.90;;;;;;5042729;28;20517;-63
2023/12/14 08:34:03;;;;;;;9.90;5.57;;;6.50;99.90;;;;;;5041234;28;20040;-65
2023/12/14 08:36:29;;;;;;;9.43;4.88;;;6.50;99.90;;;;;;5037277;28;20409;-64
2023/12/14 08:38:55;;;;;;;6.13;4.15;;;6.50;99.90;;;;;;5045007;28;20623;-65
2023/12/14 08:41:21;;;;;;;8.98;5.53;;;6.50;99.90;;;;;;5044619;28;20033;-65
2023/12/14 08:43:47;;;;;;;9.43;5.45;;;6.50;99.90;;;;;;5043936;28;20029;-64
2023/12/14 08:46:12;;;;;;;10.93;5.47;;;6.50;99.90;;;;;;5041438;28;20123;-65
2023/12/14 08:48:38;;;;;;;9.85;5.35;;;6.60;99.90;;;;;;5038527;28;20029;-64
2023/12/14 08:51:05;;;;;;;7.90;5.07;;;6.60;99.90;;;;;;5041896;28;20111;-65
2023/12/14 08:53:31;;;;;;;10.77;5.60;;;6.60;99.90;;;;;;5036014;28;20037;-65
2023/12/14 08:55:57;;;;;;;8.90;5.57;;;6.60;99.90;;;;;;5039941;28;20048;-65
2023/12/14 08:58:23;;;;;;;8.88;4.75;;;6.60;99.90;;;;;;5041234;28;20123;-65
2023/12/14 09:00:52;;;;;;;9.77;5.32;;;6.60;99.90;;;;;;5040793;28;20082;-64
2023/12/14 09:03:21;;;;;;;7.78;5.10;;;6.70;99.90;;;;;;5035781;28;20032;-65
2023/12/14 09:05:47;;;;;;;8.70;5.28;;;6.70;99.90;;;;;;5032917;28;20478;-64
2023/12/14 09:08:13;;;;;;;8.77;5.25;;;6.70;99.90;;;;;;5042249;28;20026;-64
2023/12/14 09:10:39;;;;;;;8.63;4.90;;;6.70;99.90;;;;;;5041484;28;20029;-64
2023/12/14 09:13:05;;;;;;;12.30;6.35;;;6.70;99.90;;;;;;5030374;28;20029;-64
2023/12/14 09:15:32;;;;;;;12.00;5.80;;;6.70;99.90;;;;;;5038488;28;20037;-62
2023/12/14 09:17:57;;;;;;;9.30;5.47;;;6.80;99.90;;;;;;5037329;28;20041;-64
2023/12/14 09:20:23;;;;;;;9.20;5.18;;;6.80;99.90;;;;;;5037890;28;20044;-65
2023/12/14 09:22:50;;;;;;;12.20;6.15;;;6.70;99.90;;;;;;5041716;28;20094;-64
2023/12/14 09:25:16;;;;;;;10.77;5.97;;;6.80;99.90;;;;;;5034955;28;20029;-64
2023/12/14 09:27:42;;;;;;;12.32;6.47;;;6.80;99.90;;;;;;5032234;28;20037;-64
2023/12/14 09:30:09;;;;;;;10.30;5.75;;;6.80;99.90;;;;;;5034588;28;20029;-64
2023/12/14 09:32:34;;;;;;;7.22;4.93;;;6.80;99.90;;;;;;5039995;28;20074;-64
2023/12/14 09:35:00;;;;;;;10.05;6.20;;;6.80;99.90;;;;;;5044086;28;20507;-64
2023/12/14 09:37:26;;;;;;;9.20;5.60;;;6.80;99.90;;;;;;5035504;28;20024;-64
2023/12/14 09:39:52;;;;;;;12.00;6.38;;;6.80;99.90;;;;;;5037685;28;20053;-64
2023/12/14 09:42:22;;;;;;;9.25;5.88;;;6.80;99.90;;;;;;5036149;28;20025;-64
2023/12/14 09:44:49;;;;;;;9.55;5.93;;;6.80;99.90;;;;;;5042734;28;20473;-64
2023/12/14 09:47:15;;;;;;;10.25;6.35;;;6.80;99.90;;;;;;5037887;28;20111;-64
2023/12/14 09:49:43;;;;;;;9.60;5.32;;;6.80;99.90;;;;;;5040460;28;20041;-64
2023/12/14 09:52:09;;;;;;;12.02;6.18;;;6.80;99.90;;;;;;5043704;28;20068;-64
2023/12/14 09:54:35;;;;;;;15.43;6.95;;;6.90;99.90;;;;;;5030201;28;20551;-65
2023/12/14 09:57:01;;;;;;;11.27;6.55;;;6.90;99.90;;;;;;5042438;28;20037;-65
2023/12/14 09:59:27;;;;;;;15.60;7.55;;;6.90;99.90;;;;;;5038223;28;20033;-65
2023/12/14 10:01:53;;;;;;;13.65;6.85;;;6.90;99.90;;;;;;5038733;28;20041;-65
2023/12/14 10:04:24;;;;;;;13.75;7.97;;;6.90;99.90;;;;;;5038278;28;20091;-65
2023/12/14 10:06:49;;;;;;;16.05;7.97;;;6.90;99.90;;;;;;5043927;28;20029;-65
2023/12/14 10:09:22;;;;;;;16.48;8.38;;;6.80;99.90;;;;;;5038008;28;20781;-65
2023/12/14 10:12:01;;;;;;;16.75;7.50;;;6.80;99.90;;;;;;5043364;28;20039;-65
2023/12/14 10:14:27;;;;;;;18.95;8.93;;;6.70;99.90;;;;;;5043543;28;20509;-65
2023/12/14 10:16:53;;;;;;;14.40;7.40;;;6.70;99.90;;;;;;5046476;28;20090;-66
2023/12/14 10:19:19;;;;;;;14.80;8.23;;;6.80;99.90;;;;;;5043995;28;20112;-66
2023/12/14 10:21:49;;;;;;;14.77;8.40;;;6.80;99.90;;;;;;5047332;28;20036;-67
2023/12/14 10:24:16;;;;;;;16.65;7.80;;;6.80;99.90;;;;;;5047047;28;20043;-66
2023/12/14 10:26:45;;;;;;;14.50;7.82;;;6.80;99.90;;;;;;5047162;28;20044;-66
2023/12/14 10:29:10;;;;;;;16.80;8.90;;;6.80;99.90;;;;;;5045657;28;20025;-67
2023/12/14 10:31:39;;;;;;;14.25;8.27;;;6.90;99.90;;;;;;5045023;28;20481;-66
2023/12/14 10:34:05;;;;;;;16.50;8.25;;;6.90;99.90;;;;;;5044877;28;20029;-65
2023/12/14 10:36:32;;;;;;;14.02;8.38;;;6.90;99.90;;;;;;5043063;28;20821;-65
2023/12/14 10:39:00;;;;;;;18.70;9.13;;;6.90;99.90;;;;;;5046074;28;20207;-64
2023/12/14 10:41:28;;;;;;;15.70;7.85;;;6.90;99.90;;;;;;5046723;28;20036;-65
2023/12/14 10:43:56;;;;;;;13.98;7.65;;;6.90;99.90;;;;;;5039311;28;20163;-65
2023/12/14 10:46:23;;;;;;;13.50;7.57;;;6.90;99.90;;;;;;5038558;28;20029;-65
2023/12/14 10:48:50;;;;;;;15.75;8.18;;;6.90;99.90;;;;;;5043978;28;20040;-65
2023/12/14 10:51:23;;;;;;;17.60;9.15;;;6.90;99.90;;;;;;5036938;28;20028;-65
2023/12/14 10:53:51;;;;;;;13.18;7.00;;;6.90;99.90;;;;;;5046545;28;20029;-65
2023/12/14 10:56:18;;;;;;;11.35;6.65;;;7.00;99.90;;;;;;5045561;28;20113;-65
2023/12/14 10:58:55;;;;;;;12.50;7.05;;;6.90;99.90;;;;;;5041317;28;20084;-65
2023/12/14 11:01:26;;;;;;;11.30;6.32;;;6.90;99.90;;;;;;5034687;28;20110;-65
2023/12/14 11:03:56;;;;;;;13.73;7.32;;;7.00;99.90;;;;;;5046642;28;20087;-66
2023/12/14 11:06:25;;;;;;;11.73;6.32;;;7.00;99.90;;;;;;5044883;28;20075;-65
2023/12/14 11:08:56;;;;;;;12.38;7.05;;;6.90;99.90;;;;;;5037573;28;20032;-65
2023/12/14 11:11:22;;;;;;;13.07;6.45;;;6.90;99.90;;;;;;5038561;28;20037;-65
2023/12/14 11:13:52;;;;;;;14.32;7.93;;;6.90;99.90;;;;;;5046191;28;20041;-65
2023/12/14 11:16:21;;;;;;;13.20;6.90;;;6.90;99.90;;;;;;5037828;28;20025;-65
2023/12/14 11:18:47;;;;;;;16.55;7.63;;;6.90;99.90;;;;;;5046081;28;20021;-65
2023/12/14 11:21:21;;;;;;;12.10;6.47;;;6.90;99.90;;;;;;5046165;28;20032;-65
2023/12/14 11:23:50;;;;;;;18.85;8.43;;;6.90;99.90;;;;;;5041207;28;20495;-65
2023/12/14 11:26:22;;;;;;;17.40;8.35;;;6.90;99.90;;;;;;5045951;28;20025;-65
2023/12/14 11:28:48;;;;;;;19.10;8.70;;;7.00;99.90;;;;;;5042077;28;20029;-65
2023/12/14 11:31:14;;;;;;;14.60;8.20;;;7.00;99.90;;;;;;5042838;28;20037;-65
2023/12/14 11:33:40;;;;;;;15.00;7.47;;;7.00;99.90;;;;;;5041168;28;20025;-65
2023/12/14 11:36:08;;;;;;;17.02;8.63;;;6.90;99.90;;;;;;5045984;28;20556;-65
2023/12/14 11:38:35;;;;;;;13.95;7.63;;;7.00;99.90;;;;;;5038238;28;20076;-65
2023/12/14 11:41:01;;;;;;;22.08;10.70;;;7.00;99.90;;;;;;5044552;28;20776;-65
2023/12/14 11:43:26;;;;;;;19.67;9.63;;;7.00;99.90;;;;;;5043516;28;20043;-65
2023/12/14 11:45:55;;;;;;;23.38;11.80;;;7.00;99.90;;;;;;5045338;28;20080;-65
2023/12/14 11:48:21;;;;;;;26.35;12.05;;;7.00;99.90;;;;;;5037718;28;20069;-64
2023/12/14 11:50:47;;;;;;;22.25;10.90;;;7.00;99.90;;;;;;5042466;28;20107;-65
2023/12/14 11:53:13;;;;;;;21.95;9.68;;;7.00;99.90;;;;;;5039693;28;20033;-65
2023/12/14 11:55:41;;;;;;;20.58;9.25;;;7.00;99.90;;;;;;5043723;28;20123;-65
2023/12/14 11:58:08;;;;;;;19.60;10.63;;;7.00;99.90;;;;;;5041382;28;20607;-65
2023/12/14 12:00:37;;;;;;;20.15;10.52;;;7.00;99.90;;;;;;5045850;28;20029;-66
2023/12/14 12:03:20;;;;;;;25.45;11.15;;;7.00;99.90;;;;;;5036595;28;20038;-66
2023/12/14 12:05:46;;;;;;;19.58;9.30;;;7.00;99.90;;;;;;5043945;28;20029;-66
2023/12/14 12:08:14;;;;;;;19.63;9.75;;;7.00;99.90;;;;;;5041764;28;20499;-66
2023/12/14 12:10:41;;;;;;;18.25;10.27;;;7.00;99.90;;;;;;5037723;28;20693;-66
2023/12/14 12:13:11;;;;;;;16.48;9.15;;;7.00;99.90;;;;;;5035696;28;20655;-65
2023/12/14 12:15:37;;;;;;;21.50;10.88;;;7.00;99.90;;;;;;5043130;28;20036;-65
2023/12/14 12:18:07;;;;;;;22.90;11.20;;;7.00;99.90;;;;;;5041646;28;20037;-65
2023/12/14 12:20:34;;;;;;;24.60;11.50;;;7.00;99.90;;;;;;5045260;28;20795;-65
2023/12/14 12:23:01;;;;;;;18.70;10.57;;;7.00;99.90;;;;;;5044715;28;20523;-65
2023/12/14 12:25:28;;;;;;;18.58;9.18;;;7.00;99.90;;;;;;5045277;28;20052;-65
2023/12/14 12:27:57;;;;;;;18.75;10.50;;;7.00;99.90;;;;;;5033732;28;20040;-65
2023/12/14 12:30:23;;;;;;;22.60;11.13;;;6.90;99.90;;;;;;5043155;28;20112;-65
2023/12/14 12:32:51;;;;;;;21.23;11.05;;;7.00;99.90;;;;;;5040943;28;20672;-65
2023/12/14 12:35:18;;;;;;;18.27;9.63;;;7.00;99.90;;;;;;5036911;28;20024;-65
2023/12/14 12:37:44;;;;;;;18.75;10.10;;;6.90;99.90;;;;;;5033365;28;20520;-65
2023/12/14 12:40:11;;;;;;;18.38;8.88;;;7.00;99.90;;;;;;5038928;28;20033;-65
2023/12/14 12:42:37;;;;;;;21.55;9.85;;;7.00;99.90;;;;;;5043116;28;20056;-65
2023/12/14 12:45:04;;;;;;;18.58;8.55;;;7.00;99.90;;;;;;5034513;28;20594;-65
2023/12/14 12:47:30;;;;;;;20.05;10.80;;;7.10;99.90;;;;;;5038147;28;20036;-65